createdAt,value
2019-02-23T00:02:13.204Z,-5.40
2019-02-23T00:04:46.822Z,-5.40
2019-02-23T00:07:20.483Z,-5.40
2019-02-23T00:09:54.214Z,-5.30
2019-02-23T00:12:27.852Z,-5.30
2019-02-23T00:15:01.447Z,-5.30
2019-02-23T00:17:35.125Z,-5.30
2019-02-23T00:20:09.230Z,-5.20
2019-02-23T00:22:43.753Z,-5.20
2019-02-23T00:25:17.460Z,-5.20
2019-02-23T00:27:51.161Z,-5.20
2019-02-23T00:30:24.776Z,-5.10
2019-02-23T00:32:58.477Z,-5.10
2019-02-23T00:35:32.197Z,-5.10
2019-02-23T00:38:05.788Z,-5.10
2019-02-23T00:40:39.505Z,-5.10
2019-02-23T00:43:13.116Z,-5.10
2019-02-23T00:45:46.779Z,-5.20
2019-02-23T00:48:20.413Z,-5.20
2019-02-23T00:50:54.120Z,-5.20
2019-02-23T00:53:27.783Z,-5.10
2019-02-23T00:56:01.469Z,-5.10
2019-02-23T00:58:36.056Z,-5.10
2019-02-23T01:01:09.788Z,-5.10
2019-02-23T01:03:43.389Z,-5.10
2019-02-23T01:06:17.131Z,-5.10
2019-02-23T01:08:51.963Z,-5.10
2019-02-23T01:11:25.622Z,-5.10
2019-02-23T01:13:59.255Z,-5.20
2019-02-23T01:16:32.932Z,-5.20
2019-02-23T01:19:06.535Z,-5.20
2019-02-23T01:21:40.267Z,-5.20
2019-02-23T01:24:14.123Z,-5.10
2019-02-23T01:26:47.777Z,-5.10
2019-02-23T01:29:23.024Z,-5.10
2019-02-23T01:31:56.759Z,-5.10
2019-02-23T01:34:30.392Z,-5.10
2019-02-23T01:37:04.196Z,-5.10
2019-02-23T01:39:37.858Z,-5.10
2019-02-23T01:42:11.502Z,-5.00
2019-02-23T01:48:31.610Z,-5.00
2019-02-23T01:51:05.297Z,-5.00
2019-02-23T01:53:38.903Z,-4.90
2019-02-23T01:56:12.640Z,-4.90
2019-02-23T01:58:46.261Z,-4.90
2019-02-23T02:04:57.081Z,-4.90
2019-02-23T02:07:30.696Z,-4.90
2019-02-23T02:10:07.441Z,-4.80
2019-02-23T02:12:41.325Z,-4.80
2019-02-23T02:15:15.639Z,-4.80
2019-02-23T02:17:49.533Z,-4.80
2019-02-23T02:20:23.211Z,-4.80
2019-02-23T02:22:56.939Z,-4.80
2019-02-23T02:25:30.621Z,-4.70
2019-02-23T02:28:04.319Z,-4.70
2019-02-23T02:30:38.106Z,-4.70
2019-02-23T02:33:11.727Z,-4.70
2019-02-23T02:35:45.432Z,-4.70
2019-02-23T02:38:19.155Z,-4.60
2019-02-23T02:40:52.775Z,-4.60
2019-02-23T02:43:26.525Z,-4.50
2019-02-23T02:46:00.241Z,-4.50
2019-02-23T02:48:33.856Z,-4.50
2019-02-23T02:51:07.501Z,-4.50
2019-02-23T02:53:41.221Z,-4.40
2019-02-23T02:56:14.885Z,-4.40
2019-02-23T02:58:48.589Z,-4.40
2019-02-23T03:01:22.275Z,-4.40
2019-02-23T03:03:55.940Z,-4.40
2019-02-23T03:06:29.627Z,-4.30
2019-02-23T03:09:03.923Z,-4.30
2019-02-23T03:11:37.643Z,-4.30
2019-02-23T03:14:11.332Z,-4.20
2019-02-23T03:16:44.919Z,-4.20
2019-02-23T03:19:18.609Z,-4.20
2019-02-23T03:21:52.345Z,-4.20
2019-02-23T03:24:26.201Z,-4.20
2019-02-23T03:26:59.834Z,-4.20
2019-02-23T03:29:33.454Z,-4.20
2019-02-23T03:32:07.101Z,-4.10
2019-02-23T03:34:40.710Z,-4.10
2019-02-23T03:37:14.393Z,-4.10
2019-02-23T03:39:48.059Z,-4.10
2019-02-23T03:42:21.705Z,-4.10
2019-02-23T03:44:55.399Z,-4.00
2019-02-23T03:47:29.123Z,-4.00
2019-02-23T03:50:03.112Z,-4.00
2019-02-23T03:52:36.918Z,-4.00
2019-02-23T03:55:10.653Z,-3.90
2019-02-23T03:57:44.343Z,-3.90
2019-02-23T04:00:18.074Z,-3.90
2019-02-23T04:02:51.931Z,-3.90
2019-02-23T04:05:25.687Z,-3.90
2019-02-23T04:07:59.329Z,-3.80
2019-02-23T04:10:32.967Z,-3.80
2019-02-23T04:13:06.646Z,-3.90
2019-02-23T04:19:17.131Z,-3.80
2019-02-23T04:21:50.715Z,-3.80
2019-02-23T04:24:24.567Z,-3.70
2019-02-23T04:26:58.250Z,-3.70
2019-02-23T04:29:31.987Z,-3.70
2019-02-23T04:35:51.373Z,-3.60
2019-02-23T04:38:24.997Z,-3.60
2019-02-23T04:40:58.615Z,-3.50
2019-02-23T04:43:32.295Z,-3.50
2019-02-23T04:46:05.956Z,-3.60
2019-02-23T04:48:39.853Z,-3.60
2019-02-23T04:51:14.642Z,-3.60
2019-02-23T04:53:48.556Z,-3.60
2019-02-23T04:56:22.200Z,-3.50
2019-02-23T04:58:55.786Z,-3.50
2019-02-23T05:01:31.351Z,-3.50
2019-02-23T05:04:04.743Z,-3.50
2019-02-23T05:06:38.363Z,-3.50
2019-02-23T05:09:12.326Z,-3.50
2019-02-23T05:11:45.945Z,-3.50
2019-02-23T05:14:19.571Z,-3.50
2019-02-23T05:16:53.251Z,-3.40
2019-02-23T05:19:26.929Z,-3.40
2019-02-23T05:22:00.529Z,-3.30
2019-02-23T05:24:34.232Z,-3.30
2019-02-23T05:27:07.899Z,-3.20
2019-02-23T05:29:41.612Z,-3.20
2019-02-23T05:32:15.313Z,-3.10
2019-02-23T05:34:48.962Z,-3.10
2019-02-23T05:37:22.561Z,-3.10
2019-02-23T05:39:56.364Z,-3.00
2019-02-23T05:42:30.064Z,-3.00
2019-02-23T05:45:04.124Z,-3.00
2019-02-23T05:47:37.789Z,-3.00
2019-02-23T05:50:11.830Z,-3.00
2019-02-23T05:52:45.561Z,-3.00
2019-02-23T05:55:20.727Z,-3.00
2019-02-23T05:57:54.339Z,-3.00
2019-02-23T06:00:27.999Z,-2.90
2019-02-23T06:03:01.654Z,-2.90
2019-02-23T06:05:35.510Z,-2.90
2019-02-23T06:08:09.261Z,-2.90
2019-02-23T06:10:44.742Z,-2.90
2019-02-23T06:13:18.619Z,-2.90
2019-02-23T06:15:52.283Z,-2.90
2019-02-23T06:18:25.922Z,-2.80
2019-02-23T06:20:59.544Z,-2.80
2019-02-23T06:23:33.305Z,-2.80
2019-02-23T06:26:07.055Z,-2.70
2019-02-23T06:28:40.755Z,-2.60
2019-02-23T06:34:51.771Z,-2.50
2019-02-23T06:37:25.411Z,-2.40
2019-02-23T06:39:59.026Z,-2.30
2019-02-23T06:42:32.722Z,-2.20
2019-02-23T06:45:13.591Z,-2.10
2019-02-23T06:51:24.088Z,-2.00
2019-02-23T06:53:57.667Z,-2.00
2019-02-23T06:56:31.367Z,-2.00
2019-02-23T06:59:04.967Z,-2.10
2019-02-23T07:01:38.719Z,-2.10
2019-02-23T07:04:12.373Z,-2.10
2019-02-23T07:06:46.170Z,-2.10
2019-02-23T07:09:19.778Z,-2.10
2019-02-23T07:11:53.453Z,-2.10
2019-02-23T07:14:27.070Z,-2.10
2019-02-23T07:17:01.062Z,-2.10
2019-02-23T07:19:34.661Z,-2.10
2019-02-23T07:22:15.615Z,-2.10
2019-02-23T07:24:43.658Z,-2.10
2019-02-23T07:27:17.962Z,-2.10
2019-02-23T07:29:51.889Z,-2.00
2019-02-23T07:32:27.096Z,-2.00
2019-02-23T07:35:00.758Z,-1.90
2019-02-23T07:37:34.495Z,-1.90
2019-02-23T07:40:12.734Z,-1.90
2019-02-23T07:42:46.420Z,-1.80
2019-02-23T07:45:20.180Z,-1.80
2019-02-23T07:47:53.808Z,-1.80
2019-02-23T07:50:27.907Z,-1.80
2019-02-23T07:53:01.550Z,-1.70
2019-02-23T07:55:35.303Z,-1.70
2019-02-23T07:58:09.068Z,-1.70
2019-02-23T08:00:42.731Z,-1.60
2019-02-23T08:03:16.353Z,-1.50
2019-02-23T08:05:51.657Z,-1.50
2019-02-23T08:08:25.249Z,-1.30
2019-02-23T08:10:58.963Z,-1.20
2019-02-23T08:13:32.594Z,-1.00
2019-02-23T08:16:06.162Z,-0.90
2019-02-23T08:18:39.761Z,-0.80
2019-02-23T08:21:13.368Z,-0.80
2019-02-23T08:23:46.990Z,-0.70
2019-02-23T08:26:21.858Z,-0.60
2019-02-23T08:28:55.594Z,-0.50
2019-02-23T08:31:30.163Z,-0.40
2019-02-23T08:34:03.826Z,-0.30
2019-02-23T08:36:37.592Z,-0.30
2019-02-23T08:39:11.267Z,-0.20
2019-02-23T08:41:46.116Z,-0.20
2019-02-23T08:44:19.818Z,-0.10
2019-02-23T08:50:03.113Z,0.00
2019-02-23T08:52:36.712Z,-0.10
2019-02-23T08:55:11.246Z,-0.10
2019-02-23T08:57:44.993Z,-0.10
2019-02-23T09:00:19.274Z,-0.10
2019-02-23T09:06:38.848Z,0.00
2019-02-23T09:09:12.492Z,0.10
2019-02-23T09:11:46.978Z,0.20
2019-02-23T09:14:20.760Z,0.20
2019-02-23T09:16:55.747Z,0.20
2019-02-23T09:23:15.734Z,0.30
2019-02-23T09:25:49.450Z,0.50
2019-02-23T09:28:23.508Z,0.40
2019-02-23T09:30:57.485Z,0.40
2019-02-23T09:33:31.086Z,0.50
2019-02-23T09:36:04.855Z,0.50
2019-02-23T09:38:38.553Z,0.50
2019-02-23T09:41:12.150Z,0.60
2019-02-23T09:43:45.949Z,0.70
2019-02-23T09:46:19.538Z,0.70
2019-02-23T09:48:53.310Z,0.70
2019-02-23T09:51:26.918Z,0.80
2019-02-23T09:54:01.694Z,0.70
2019-02-23T09:56:35.352Z,0.70
2019-02-23T09:59:09.066Z,0.70
2019-02-23T10:01:42.760Z,0.80
2019-02-23T10:04:16.395Z,0.80
2019-02-23T10:06:50.204Z,0.90
2019-02-23T10:09:24.151Z,1.00
2019-02-23T10:11:58.004Z,1.00
2019-02-23T10:14:31.755Z,1.00
2019-02-23T10:17:05.336Z,0.90
2019-02-23T10:19:38.981Z,1.00
2019-02-23T10:22:12.621Z,1.00
2019-02-23T10:24:46.295Z,1.00
2019-02-23T10:27:20.102Z,1.00
2019-02-23T10:29:53.783Z,0.90
2019-02-23T10:36:04.660Z,0.90
2019-02-23T10:38:38.333Z,0.90
2019-02-23T10:41:11.977Z,0.80
2019-02-23T10:43:45.711Z,0.80
2019-02-23T10:46:19.447Z,0.80
2019-02-23T10:52:39.348Z,0.90
2019-02-23T10:55:15.253Z,0.80
2019-02-23T10:57:48.909Z,0.70
2019-02-23T11:00:23.171Z,0.70
2019-02-23T11:02:56.840Z,0.70
2019-02-23T11:05:30.543Z,0.70
2019-02-23T11:08:04.274Z,0.70
2019-02-23T11:10:38.220Z,0.70
2019-02-23T11:13:11.979Z,0.70
2019-02-23T11:15:45.680Z,0.80
2019-02-23T11:18:19.402Z,0.90
2019-02-23T11:20:53.161Z,0.90
2019-02-23T11:23:26.780Z,0.90
2019-02-23T11:26:00.520Z,1.00
2019-02-23T11:28:34.355Z,1.00
2019-02-23T11:31:07.969Z,1.00
2019-02-23T11:33:41.591Z,1.00
2019-02-23T11:36:15.369Z,1.10
2019-02-23T11:38:49.048Z,1.20
2019-02-23T11:41:22.707Z,1.40
2019-02-23T11:43:56.427Z,1.30
2019-02-23T11:46:30.086Z,1.50
2019-02-23T11:49:03.906Z,1.70
2019-02-23T11:51:37.605Z,1.80
2019-02-23T11:54:12.647Z,1.90
2019-02-23T11:56:46.440Z,1.90
2019-02-23T11:59:20.061Z,1.90
2019-02-23T12:01:53.851Z,1.90
2019-02-23T12:04:27.611Z,1.90
2019-02-23T12:07:01.820Z,1.90
2019-02-23T12:09:35.507Z,1.90
2019-02-23T12:12:09.209Z,1.90
2019-02-23T12:14:42.930Z,1.90
2019-02-23T12:17:16.589Z,2.00
2019-02-23T12:19:50.255Z,2.00
2019-02-23T12:22:23.919Z,2.00
2019-02-23T12:24:57.649Z,2.10
2019-02-23T12:27:31.258Z,2.10
2019-02-23T12:30:07.483Z,2.10
2019-02-23T12:32:41.068Z,2.20
2019-02-23T12:35:14.844Z,2.30
2019-02-23T12:37:48.516Z,2.30
2019-02-23T12:40:22.326Z,2.30
2019-02-23T12:42:56.057Z,2.30
2019-02-23T12:45:29.759Z,2.20
2019-02-23T12:50:58.266Z,2.30
2019-02-23T12:53:31.983Z,2.30
2019-02-23T12:56:05.978Z,2.30
2019-02-23T12:58:41.525Z,2.20
2019-02-23T13:01:15.159Z,2.10
2019-02-23T13:07:29.536Z,2.10
2019-02-23T13:10:04.567Z,2.10
2019-02-23T13:12:59.207Z,2.10
2019-02-23T13:15:35.883Z,2.20
2019-02-23T13:18:15.073Z,2.20
2019-02-23T13:24:40.659Z,2.40
2019-02-23T13:27:18.692Z,2.50
2019-02-23T13:30:04.093Z,2.50
2019-02-23T13:33:11.023Z,2.50
2019-02-23T13:36:02.734Z,2.40
2019-02-23T13:39:05.451Z,2.30
2019-02-23T13:41:56.960Z,2.30
2019-02-23T13:44:39.387Z,2.40
2019-02-23T13:47:24.203Z,2.50
2019-02-23T13:50:10.322Z,2.70
2019-02-23T13:53:05.150Z,2.80
2019-02-23T13:55:44.564Z,2.80
2019-02-23T13:58:33.887Z,2.80
2019-02-23T14:01:25.632Z,2.80
2019-02-23T14:04:04.995Z,2.80
2019-02-23T14:07:05.969Z,2.70
2019-02-23T14:10:09.456Z,2.60
2019-02-23T14:13:04.413Z,2.40
2019-02-23T14:16:00.849Z,2.20
2019-02-23T14:23:06.105Z,2.20
2019-02-23T14:25:57.402Z,2.30
2019-02-23T14:28:36.824Z,2.20
2019-02-23T14:31:24.800Z,2.10
2019-02-23T14:34:07.094Z,2.10
2019-02-23T14:37:00.746Z,2.00
2019-02-23T14:39:58.814Z,1.90
2019-02-23T14:42:47.403Z,1.70
2019-02-23T14:45:24.152Z,1.60
2019-02-23T14:48:17.150Z,1.50
2019-02-23T14:55:00.724Z,1.30
2019-02-23T14:57:34.321Z,1.20
2019-02-23T15:03:39.227Z,1.00
2019-02-23T15:06:24.436Z,1.00
2019-02-23T15:09:09.984Z,1.00
2019-02-23T15:12:01.921Z,1.10
2019-02-23T15:14:44.107Z,1.10
2019-02-23T15:17:45.043Z,1.00
2019-02-23T15:20:30.970Z,1.10
2019-02-23T15:23:25.711Z,1.10
2019-02-23T15:26:17.347Z,1.10
2019-02-23T15:29:10.701Z,1.10
2019-02-23T15:32:02.033Z,1.10
2019-02-23T15:37:49.029Z,1.00
2019-02-23T15:40:25.782Z,1.00
2019-02-23T15:43:02.484Z,1.00
2019-02-23T15:45:51.632Z,1.00
2019-02-23T15:48:28.271Z,1.00
2019-02-23T15:51:02.054Z,0.90
2019-02-23T15:53:37.869Z,0.90
2019-02-23T15:56:11.566Z,0.90
2019-02-23T15:58:45.288Z,0.90
2019-02-23T16:01:19.113Z,0.90
2019-02-23T16:03:52.899Z,0.90
2019-02-23T16:06:26.542Z,0.90
2019-02-23T16:09:00.306Z,0.90
2019-02-23T16:11:34.004Z,0.90
2019-02-23T16:14:07.677Z,0.90
2019-02-23T16:16:41.451Z,0.90
2019-02-23T16:19:15.146Z,0.90
2019-02-23T16:21:48.893Z,0.90
2019-02-23T16:24:22.671Z,0.90
2019-02-23T16:26:56.377Z,0.80
2019-02-23T16:29:30.137Z,0.90
2019-02-23T16:32:03.981Z,0.90
2019-02-23T16:34:37.749Z,0.90
2019-02-23T16:37:11.582Z,0.90
2019-02-23T16:39:45.393Z,0.80
2019-02-23T16:42:19.070Z,0.80
2019-02-23T16:44:52.863Z,0.80
2019-02-23T16:47:26.588Z,0.70
2019-02-23T16:50:02.003Z,0.70
2019-02-23T16:52:35.749Z,0.60
2019-02-23T16:55:09.626Z,0.60
2019-02-23T16:57:43.269Z,0.50
2019-02-23T17:00:17.292Z,0.40
2019-02-23T17:02:50.933Z,0.40
2019-02-23T17:05:24.708Z,0.30
2019-02-23T17:07:58.397Z,0.30
2019-02-23T17:10:32.172Z,0.30
2019-02-23T17:13:10.147Z,0.20
2019-02-23T17:15:44.258Z,0.20
2019-02-23T17:18:17.901Z,0.10
2019-02-23T17:20:51.602Z,0.10
2019-02-23T17:23:25.370Z,0.00
2019-02-23T17:26:04.896Z,0.00
2019-02-23T17:28:34.582Z,0.00
2019-02-23T17:31:08.344Z,0.00
2019-02-23T17:33:42.214Z,-0.10
2019-02-23T17:36:15.824Z,-0.10
2019-02-23T17:38:52.232Z,-0.10
2019-02-23T17:41:26.254Z,-0.20
2019-02-23T17:44:00.871Z,-0.20
2019-02-23T17:46:36.064Z,-0.20
2019-02-23T17:49:11.894Z,-0.20
2019-02-23T17:51:45.456Z,-0.20
2019-02-23T17:54:19.235Z,-0.30
2019-02-23T17:56:52.979Z,-0.30
2019-02-23T17:59:26.688Z,-0.30
2019-02-23T18:02:00.425Z,-0.30
2019-02-23T18:04:34.162Z,-0.30
2019-02-23T18:07:07.917Z,-0.30
2019-02-23T18:09:41.654Z,-0.30
2019-02-23T18:12:15.426Z,-0.30
2019-02-23T18:14:49.081Z,-0.30
2019-02-23T18:17:23.069Z,-0.40
2019-02-23T18:19:56.820Z,-0.40
2019-02-23T18:22:30.544Z,-0.40
2019-02-23T18:25:04.754Z,-0.40
2019-02-23T18:27:38.370Z,-0.40
2019-02-23T18:30:16.232Z,-0.40
2019-02-23T18:32:50.147Z,-0.40
2019-02-23T18:35:23.922Z,-0.40
2019-02-23T18:37:57.587Z,-0.50
2019-02-23T18:40:31.702Z,-0.50
2019-02-23T18:43:05.369Z,-0.50
2019-02-23T18:45:47.053Z,-0.50
2019-02-23T18:48:14.392Z,-0.50
2019-02-23T18:50:48.143Z,-0.50
2019-02-23T18:53:21.835Z,-0.50
2019-02-23T18:55:55.550Z,-0.40
2019-02-23T18:58:29.595Z,-0.40
2019-02-23T19:01:03.214Z,-0.40
2019-02-23T19:03:37.662Z,-0.30
2019-02-23T19:06:11.857Z,-0.30
2019-02-23T19:08:45.520Z,-0.30
2019-02-23T19:11:19.184Z,-0.20
2019-02-23T19:13:52.989Z,-0.20
2019-02-23T19:16:26.696Z,-0.20
2019-02-23T19:19:00.448Z,-0.30
2019-02-23T19:21:34.290Z,-0.30
2019-02-23T19:24:07.898Z,-0.30
2019-02-23T19:26:41.703Z,-0.30
2019-02-23T19:29:15.661Z,-0.30
2019-02-23T19:31:49.402Z,-0.30
2019-02-23T19:34:23.080Z,-0.30
2019-02-23T19:36:57.098Z,-0.30
2019-02-23T19:39:31.828Z,-0.40
2019-02-23T19:42:05.530Z,-0.30
2019-02-23T19:44:39.256Z,-0.30
2019-02-23T19:47:13.064Z,-0.40
2019-02-23T19:49:47.027Z,-0.30
2019-02-23T19:52:20.646Z,-0.40
2019-02-23T19:54:54.463Z,-0.40
2019-02-23T19:57:28.098Z,-0.30
2019-02-23T20:00:01.809Z,-0.30
2019-02-23T20:02:35.613Z,-0.30
2019-02-23T20:05:10.504Z,-0.20
2019-02-23T20:07:45.274Z,-0.20
2019-02-23T20:10:19.084Z,-0.20
2019-02-23T20:12:53.015Z,-0.20
2019-02-23T20:15:26.701Z,-0.20
2019-02-23T20:18:02.275Z,-0.20
2019-02-23T20:20:35.951Z,-0.20
2019-02-23T20:23:09.775Z,-0.20
2019-02-23T20:25:43.487Z,-0.20
2019-02-23T20:28:17.931Z,-0.20
2019-02-23T20:30:51.621Z,-0.20
2019-02-23T20:33:25.449Z,-0.20
2019-02-23T20:35:59.164Z,-0.10
2019-02-23T20:38:33.126Z,-0.10
2019-02-23T20:41:09.034Z,-0.10
2019-02-23T20:43:42.726Z,-0.10
2019-02-23T20:46:16.737Z,0.00
2019-02-23T20:48:50.501Z,0.00
2019-02-23T20:51:26.264Z,0.00
2019-02-23T20:53:59.986Z,0.00
2019-02-23T20:56:33.602Z,0.10
2019-02-23T20:59:07.394Z,0.10
2019-02-23T21:01:41.002Z,0.10
2019-02-23T21:04:14.747Z,0.10
2019-02-23T21:06:48.350Z,0.10
2019-02-23T21:09:22.074Z,0.10
2019-02-23T21:11:55.713Z,0.10
2019-02-23T21:14:29.425Z,0.10
2019-02-23T21:17:03.104Z,0.10
2019-02-23T21:19:36.670Z,0.10
2019-02-23T21:22:10.376Z,0.10
2019-02-23T21:24:44.013Z,0.10
2019-02-23T21:27:17.674Z,0.10
2019-02-23T21:29:51.366Z,0.10
2019-02-23T21:32:28.189Z,0.10
2019-02-23T21:35:02.040Z,0.10
2019-02-23T21:37:35.760Z,0.00
2019-02-23T21:40:11.964Z,0.10
2019-02-23T21:42:45.567Z,0.10
2019-02-23T21:45:21.066Z,0.10
2019-02-23T21:47:54.772Z,0.10
2019-02-23T21:50:33.187Z,0.10
2019-02-23T21:53:06.998Z,0.10
2019-02-23T21:55:49.758Z,0.20
2019-02-23T21:58:23.445Z,0.20
2019-02-23T22:00:57.357Z,0.20
2019-02-23T22:03:31.801Z,0.20
2019-02-23T22:06:06.662Z,0.30
2019-02-23T22:08:42.041Z,0.30
2019-02-23T22:11:20.690Z,0.30
2019-02-23T22:13:56.950Z,0.30
2019-02-23T22:16:30.787Z,0.40
2019-02-23T22:19:07.008Z,0.40
2019-02-23T22:21:40.727Z,0.50
2019-02-23T22:24:14.391Z,0.50
2019-02-23T22:26:53.343Z,0.50
2019-02-23T22:29:27.029Z,0.50
2019-02-23T22:32:03.146Z,0.60
2019-02-23T22:34:39.428Z,0.60
2019-02-23T22:37:13.080Z,0.60
2019-02-23T22:39:48.382Z,0.60
2019-02-23T22:42:22.096Z,0.70
2019-02-23T22:44:55.763Z,0.60
2019-02-23T22:47:34.500Z,0.60
2019-02-23T22:50:12.589Z,0.70
2019-02-23T22:52:46.226Z,0.70
2019-02-23T22:55:20.062Z,0.60
2019-02-23T22:57:53.647Z,0.70
2019-02-23T23:00:28.989Z,0.60
2019-02-23T23:03:02.667Z,0.70
2019-02-23T23:05:36.480Z,0.60
2019-02-23T23:11:11.646Z,0.70
2019-02-23T23:13:45.233Z,0.70
2019-02-23T23:16:18.885Z,0.70
2019-02-23T23:18:52.682Z,0.70
2019-02-23T23:21:29.497Z,0.70
2019-02-23T23:24:03.129Z,0.70
2019-02-23T23:26:36.759Z,0.70
2019-02-23T23:29:10.504Z,0.70
2019-02-23T23:31:44.217Z,0.80
2019-02-23T23:34:17.880Z,0.70
2019-02-23T23:36:51.643Z,0.80
2019-02-23T23:39:25.293Z,0.80
2019-02-23T23:41:59.674Z,0.80
2019-02-23T23:44:33.274Z,0.80
2019-02-23T23:47:06.953Z,0.80
2019-02-23T23:49:40.639Z,0.90
2019-02-23T23:52:14.426Z,0.90
2019-02-23T23:54:47.981Z,0.90
2019-02-23T23:57:22.325Z,0.90
2019-02-23T23:59:55.901Z,0.90
